sensor_id;sensor_type;location;lat;lon;timestamp;pressure;altitude;pressure_sealevel;temperature;humidity
33155;BME280;19511;42.682;23.332;2023-05-08T00:03:39;95317.00;;;13.14;100.00
33155;BME280;19511;42.682;23.332;2023-05-08T00:06:04;95218.28;;;12.42;100.00
33155;BME280;19511;42.682;23.332;2023-05-08T00:08:30;95323.59;;;13.00;100.00
33155;BME280;19511;42.682;23.332;2023-05-08T00:10:56;95292.44;;;12.89;100.00
33155;BME280;19511;42.682;23.332;2023-05-08T00:13:27;95313.03;;;12.92;100.00
33155;BME280;19511;42.682;23.332;2023-05-08T00:16:01;95317.38;;;12.93;100.00
33155;BME280;19511;42.682;23.332;2023-05-08T00:18:27;95316.03;;;13.01;100.00
33155;BME280;19511;42.682;23.332;2023-05-08T00:20:52;95282.34;;;12.75;100.00
33155;BME280;19511;42.682;23.332;2023-05-08T00:23:18;95317.84;;;12.87;100.00
33155;BME280;19511;42.682;23.332;2023-05-08T00:25:43;95297.25;;;12.85;100.00
33155;BME280;19511;42.682;23.332;2023-05-08T00:28:08;95227.69;;;12.21;100.00
33155;BME280;19511;42.682;23.332;2023-05-08T00:30:35;95325.09;;;12.81;100.00
33155;BME280;19511;42.682;23.332;2023-05-08T00:33:02;95318.72;;;12.81;100.00
33155;BME280;19511;42.682;23.332;2023-05-08T00:35:31;95332.09;;;12.89;100.00
33155;BME280;19511;42.682;23.332;2023-05-08T00:38:00;95323.94;;;12.79;100.00
33155;BME280;19511;42.682;23.332;2023-05-08T00:40:26;95335.53;;;12.73;100.00
33155;BME280;19511;42.682;23.332;2023-05-08T00:42:52;95323.78;;;12.62;100.00
33155;BME280;19511;42.682;23.332;2023-05-08T00:45:17;95328.25;;;12.56;100.00
33155;BME280;19511;42.682;23.332;2023-05-08T00:47:42;95213.31;;;11.71;100.00
33155;BME280;19511;42.682;23.332;2023-05-08T00:50:09;95332.22;;;12.55;100.00
33155;BME280;19511;42.682;23.332;2023-05-08T00:52:40;95334.34;;;12.44;100.00
33155;BME280;19511;42.682;23.332;2023-05-08T00:55:06;95321.94;;;12.24;100.00
33155;BME280;19511;42.682;23.332;2023-05-08T00:57:32;95235.22;;;11.62;100.00
33155;BME280;19511;42.682;23.332;2023-05-08T01:00:05;95337.44;;;12.22;100.00
33155;BME280;19511;42.682;23.332;2023-05-08T01:02:32;95323.00;;;12.03;100.00
33155;BME280;19511;42.682;23.332;2023-05-08T01:05:05;95343.59;;;12.02;100.00
33155;BME280;19511;42.682;23.332;2023-05-08T01:07:31;95256.31;;;11.49;100.00
33155;BME280;19511;42.682;23.332;2023-05-08T01:10:00;95334.47;;;12.05;100.00
33155;BME280;19511;42.682;23.332;2023-05-08T01:12:37;95339.78;;;11.89;100.00
33155;BME280;19511;42.682;23.332;2023-05-08T01:15:21;95343.94;;;11.73;100.00
33155;BME280;19511;42.682;23.332;2023-05-08T01:20:44;95342.97;;;11.87;100.00
33155;BME280;19511;42.682;23.332;2023-05-08T01:29:42;95347.16;;;11.68;100.00
33155;BME280;19511;42.682;23.332;2023-05-08T01:34:25;95338.84;;;11.68;100.00
33155;BME280;19511;42.682;23.332;2023-05-08T01:37:13;95345.56;;;11.67;100.00
33155;BME280;19511;42.682;23.332;2023-05-08T01:39:46;95338.44;;;11.66;100.00
33155;BME280;19511;42.682;23.332;2023-05-08T01:45:02;95334.19;;;11.58;100.00
33155;BME280;19511;42.682;23.332;2023-05-08T01:47:39;95322.50;;;11.39;100.00
33155;BME280;19511;42.682;23.332;2023-05-08T01:50:15;95322.22;;;11.30;100.00
33155;BME280;19511;42.682;23.332;2023-05-08T01:52:45;95308.09;;;11.17;100.00
33155;BME280;19511;42.682;23.332;2023-05-08T01:55:23;95315.75;;;11.02;100.00
33155;BME280;19511;42.682;23.332;2023-05-08T01:57:56;95332.72;;;11.04;100.00
33155;BME280;19511;42.682;23.332;2023-05-08T02:00:26;95320.63;;;10.87;100.00
33155;BME280;19511;42.682;23.332;2023-05-08T02:02:56;95240.78;;;10.40;100.00
33155;BME280;19511;42.682;23.332;2023-05-08T02:05:23;95337.44;;;11.11;100.00
33155;BME280;19511;42.682;23.332;2023-05-08T02:07:51;95337.38;;;11.15;100.00
33155;BME280;19511;42.682;23.332;2023-05-08T02:10:19;95344.13;;;11.14;100.00
33155;BME280;19511;42.682;23.332;2023-05-08T02:12:47;95333.56;;;11.01;100.00
33155;BME280;19511;42.682;23.332;2023-05-08T02:15:13;95325.00;;;10.85;100.00
33155;BME280;19511;42.682;23.332;2023-05-08T02:17:40;95246.38;;;10.26;100.00
33155;BME280;19511;42.682;23.332;2023-05-08T02:20:08;95328.25;;;10.72;100.00
33155;BME280;19511;42.682;23.332;2023-05-08T02:22:41;95352.28;;;10.79;100.00
33155;BME280;19511;42.682;23.332;2023-05-08T02:25:08;95295.22;;;10.51;100.00
33155;BME280;19511;42.682;23.332;2023-05-08T02:27:36;95344.44;;;10.70;100.00
33155;BME280;19511;42.682;23.332;2023-05-08T02:30:03;95344.88;;;10.65;100.00
33155;BME280;19511;42.682;23.332;2023-05-08T02:32:33;95332.69;;;10.59;100.00
33155;BME280;19511;42.682;23.332;2023-05-08T02:35:02;95350.81;;;10.67;100.00
33155;BME280;19511;42.682;23.332;2023-05-08T02:37:29;95350.81;;;10.67;100.00
33155;BME280;19511;42.682;23.332;2023-05-08T02:39:55;95346.47;;;10.66;100.00
33155;BME280;19511;42.682;23.332;2023-05-08T02:42:22;95240.97;;;10.04;100.00
33155;BME280;19511;42.682;23.332;2023-05-08T02:44:51;95342.50;;;10.67;100.00
33155;BME280;19511;42.682;23.332;2023-05-08T02:47:44;95261.47;;;10.10;100.00
33155;BME280;19511;42.682;23.332;2023-05-08T02:50:35;95353.56;;;10.71;100.00
33155;BME280;19511;42.682;23.332;2023-05-08T02:53:08;95352.84;;;10.59;100.00
33155;BME280;19511;42.682;23.332;2023-05-08T02:55:58;95345.75;;;10.55;100.00
33155;BME280;19511;42.682;23.332;2023-05-08T03:01:04;95360.38;;;10.55;100.00
33155;BME280;19511;42.682;23.332;2023-05-08T03:03:45;95354.88;;;10.48;100.00
33155;BME280;19511;42.682;23.332;2023-05-08T03:06:21;95363.94;;;10.52;100.00
33155;BME280;19511;42.682;23.332;2023-05-08T03:08:49;95354.88;;;10.52;100.00
33155;BME280;19511;42.682;23.332;2023-05-08T03:11:20;95260.00;;;9.91;100.00
33155;BME280;19511;42.682;23.332;2023-05-08T03:13:47;95356.03;;;10.54;100.00
33155;BME280;19511;42.682;23.332;2023-05-08T03:16:17;95354.09;;;10.48;100.00
33155;BME280;19511;42.682;23.332;2023-05-08T03:18:50;95368.28;;;10.57;100.00
33155;BME280;19511;42.682;23.332;2023-05-08T03:21:19;95271.03;;;9.95;100.00
33155;BME280;19511;42.682;23.332;2023-05-08T03:23:53;95359.66;;;10.44;100.00
33155;BME280;19511;42.682;23.332;2023-05-08T03:26:20;95376.59;;;10.50;100.00
33155;BME280;19511;42.682;23.332;2023-05-08T03:28:50;95360.81;;;10.47;100.00
33155;BME280;19511;42.682;23.332;2023-05-08T03:31:17;95354.16;;;10.40;100.00
33155;BME280;19511;42.682;23.332;2023-05-08T03:33:46;95369.44;;;10.56;100.00
33155;BME280;19511;42.682;23.332;2023-05-08T03:36:13;95307.28;;;10.11;100.00
33155;BME280;19511;42.682;23.332;2023-05-08T03:38:39;95378.09;;;10.65;100.00
33155;BME280;19511;42.682;23.332;2023-05-08T03:41:05;95368.19;;;10.68;100.00
33155;BME280;19511;42.682;23.332;2023-05-08T03:43:32;95369.72;;;10.76;100.00
33155;BME280;19511;42.682;23.332;2023-05-08T03:46:00;95371.28;;;10.81;100.00
33155;BME280;19511;42.682;23.332;2023-05-08T03:48:27;95363.03;;;10.73;100.00
33155;BME280;19511;42.682;23.332;2023-05-08T03:50:55;95337.81;;;10.64;100.00
33155;BME280;19511;42.682;23.332;2023-05-08T03:53:24;95370.03;;;10.89;100.00
33155;BME280;19511;42.682;23.332;2023-05-08T03:55:50;95368.81;;;10.93;100.00
33155;BME280;19511;42.682;23.332;2023-05-08T03:58:43;95374.25;;;11.04;100.00
33155;BME280;19511;42.682;23.332;2023-05-08T04:01:20;95377.28;;;11.21;100.00
33155;BME280;19511;42.682;23.332;2023-05-08T04:06:29;95380.69;;;11.39;100.00
33155;BME280;19511;42.682;23.332;2023-05-08T04:09:27;95383.72;;;11.52;100.00
33155;BME280;19511;42.682;23.332;2023-05-08T04:12:06;95381.34;;;11.54;100.00
33155;BME280;19511;42.682;23.332;2023-05-08T04:14:44;95388.09;;;11.50;100.00
33155;BME280;19511;42.682;23.332;2023-05-08T04:17:13;95354.56;;;11.40;100.00
33155;BME280;19511;42.682;23.332;2023-05-08T04:19:45;95323.03;;;11.27;100.00
33155;BME280;19511;42.682;23.332;2023-05-08T04:22:17;95388.28;;;11.70;100.00
33155;BME280;19511;42.682;23.332;2023-05-08T04:24:58;95396.63;;;11.66;100.00
33155;BME280;19511;42.682;23.332;2023-05-08T04:27:26;95394.53;;;11.77;100.00
33155;BME280;19511;42.682;23.332;2023-05-08T04:29:52;95384.59;;;11.84;100.00
33155;BME280;19511;42.682;23.332;2023-05-08T04:32:19;95386.97;;;11.82;100.00
33155;BME280;19511;42.682;23.332;2023-05-08T04:34:49;95390.47;;;11.86;100.00
33155;BME280;19511;42.682;23.332;2023-05-08T04:37:32;95288.53;;;11.35;100.00
33155;BME280;19511;42.682;23.332;2023-05-08T04:39:58;95308.91;;;11.52;100.00
33155;BME280;19511;42.682;23.332;2023-05-08T04:42:24;95375.34;;;11.98;100.00
33155;BME280;19511;42.682;23.332;2023-05-08T04:44:53;95384.78;;;12.04;100.00
33155;BME280;19511;42.682;23.332;2023-05-08T04:47:18;95387.88;;;12.09;100.00
33155;BME280;19511;42.682;23.332;2023-05-08T04:49:44;95381.06;;;12.18;100.00
33155;BME280;19511;42.682;23.332;2023-05-08T04:52:10;95374.22;;;12.26;100.00
33155;BME280;19511;42.682;23.332;2023-05-08T04:54:39;95361.06;;;12.30;100.00
33155;BME280;19511;42.682;23.332;2023-05-08T04:57:07;95360.56;;;12.39;100.00
33155;BME280;19511;42.682;23.332;2023-05-08T04:59:33;95362.81;;;12.48;100.00
33155;BME280;19511;42.682;23.332;2023-05-08T05:02:04;95285.81;;;12.01;100.00
33155;BME280;19511;42.682;23.332;2023-05-08T05:04:32;95221.72;;;11.64;100.00
33155;BME280;19511;42.682;23.332;2023-05-08T05:06:58;95255.31;;;12.01;100.00
33155;BME280;19511;42.682;23.332;2023-05-08T05:09:23;95358.75;;;12.83;100.00
33155;BME280;19511;42.682;23.332;2023-05-08T05:11:53;95355.00;;;12.94;100.00
33155;BME280;19511;42.682;23.332;2023-05-08T05:14:19;95362.66;;;13.13;100.00
33155;BME280;19511;42.682;23.332;2023-05-08T05:16:45;95328.66;;;13.05;100.00
33155;BME280;19511;42.682;23.332;2023-05-08T05:19:14;95368.53;;;13.43;100.00
33155;BME280;19511;42.682;23.332;2023-05-08T05:21:40;95365.31;;;13.44;100.00
33155;BME280;19511;42.682;23.332;2023-05-08T05:24:10;95364.84;;;13.26;100.00
33155;BME280;19511;42.682;23.332;2023-05-08T05:26:39;95351.88;;;13.43;100.00
33155;BME280;19511;42.682;23.332;2023-05-08T05:29:05;95336.44;;;13.38;100.00
33155;BME280;19511;42.682;23.332;2023-05-08T05:31:34;95359.44;;;13.62;100.00
33155;BME280;19511;42.682;23.332;2023-05-08T05:34:07;95368.16;;;13.41;100.00
33155;BME280;19511;42.682;23.332;2023-05-08T05:36:33;95356.06;;;13.51;100.00
33155;BME280;19511;42.682;23.332;2023-05-08T05:39:01;95362.16;;;13.66;100.00
33155;BME280;19511;42.682;23.332;2023-05-08T05:41:31;95346.50;;;13.76;100.00
33155;BME280;19511;42.682;23.332;2023-05-08T05:43:57;95347.63;;;13.78;100.00
33155;BME280;19511;42.682;23.332;2023-05-08T05:46:22;95356.34;;;14.00;100.00
33155;BME280;19511;42.682;23.332;2023-05-08T05:48:55;95337.09;;;14.10;100.00
33155;BME280;19511;42.682;23.332;2023-05-08T05:51:20;95353.41;;;14.28;100.00
33155;BME280;19511;42.682;23.332;2023-05-08T05:53:46;95342.06;;;14.39;100.00
33155;BME280;19511;42.682;23.332;2023-05-08T05:56:11;95280.22;;;13.94;100.00
33155;BME280;19511;42.682;23.332;2023-05-08T05:58:36;95342.97;;;14.32;100.00
33155;BME280;19511;42.682;23.332;2023-05-08T06:01:04;95328.34;;;14.48;100.00
33155;BME280;19511;42.682;23.332;2023-05-08T06:03:30;95254.94;;;14.05;100.00
33155;BME280;19511;42.682;23.332;2023-05-08T06:05:55;95321.75;;;14.58;100.00
33155;BME280;19511;42.682;23.332;2023-05-08T06:08:21;95256.78;;;14.12;100.00
33155;BME280;19511;42.682;23.332;2023-05-08T06:10:47;95259.19;;;14.30;100.00
33155;BME280;19511;42.682;23.332;2023-05-08T06:13:13;95327.91;;;15.02;100.00
33155;BME280;19511;42.682;23.332;2023-05-08T06:15:39;95339.41;;;15.21;100.00
33155;BME280;19511;42.682;23.332;2023-05-08T06:18:04;95322.16;;;15.10;100.00
33155;BME280;19511;42.682;23.332;2023-05-08T06:20:30;95333.53;;;15.32;100.00
33155;BME280;19511;42.682;23.332;2023-05-08T06:22:55;95309.06;;;15.23;100.00
33155;BME280;19511;42.682;23.332;2023-05-08T06:25:21;95331.44;;;15.36;100.00
33155;BME280;19511;42.682;23.332;2023-05-08T06:27:46;95329.22;;;15.60;100.00
33155;BME280;19511;42.682;23.332;2023-05-08T06:30:16;95257.69;;;15.24;100.00
33155;BME280;19511;42.682;23.332;2023-05-08T06:32:41;95327.22;;;15.61;100.00
33155;BME280;19511;42.682;23.332;2023-05-08T06:35:09;95334.59;;;15.67;100.00
33155;BME280;19511;42.682;23.332;2023-05-08T06:37:37;95337.00;;;15.52;100.00
33155;BME280;19511;42.682;23.332;2023-05-08T06:40:06;95331.09;;;15.34;100.00
33155;BME280;19511;42.682;23.332;2023-05-08T06:42:32;95333.88;;;15.50;100.00
33155;BME280;19511;42.682;23.332;2023-05-08T06:44:57;95337.34;;;15.55;100.00
33155;BME280;19511;42.682;23.332;2023-05-08T06:47:23;95255.72;;;14.92;100.00
33155;BME280;19511;42.682;23.332;2023-05-08T06:49:48;95343.88;;;15.64;100.00
33155;BME280;19511;42.682;23.332;2023-05-08T06:52:14;95324.72;;;15.79;100.00
33155;BME280;19511;42.682;23.332;2023-05-08T06:54:40;95326.84;;;16.05;100.00
33155;BME280;19511;42.682;23.332;2023-05-08T06:57:06;95337.63;;;16.19;100.00
33155;BME280;19511;42.682;23.332;2023-05-08T06:59:32;95325.66;;;16.19;100.00
33155;BME280;19511;42.682;23.332;2023-05-08T07:01:58;95324.88;;;16.18;100.00
33155;BME280;19511;42.682;23.332;2023-05-08T07:04:23;95330.19;;;16.42;100.00
33155;BME280;19511;42.682;23.332;2023-05-08T07:06:49;95339.91;;;16.50;100.00
33155;BME280;19511;42.682;23.332;2023-05-08T07:09:18;95334.41;;;16.46;100.00
33155;BME280;19511;42.682;23.332;2023-05-08T07:11:44;95327.47;;;16.25;100.00
33155;BME280;19511;42.682;23.332;2023-05-08T07:14:09;95323.09;;;16.24;100.00
33155;BME280;19511;42.682;23.332;2023-05-08T07:16:34;95257.72;;;15.83;100.00
33155;BME280;19511;42.682;23.332;2023-05-08T07:19:00;95337.84;;;16.38;100.00
33155;BME280;19511;42.682;23.332;2023-05-08T07:21:25;95283.38;;;16.20;100.00
33155;BME280;19511;42.682;23.332;2023-05-08T07:23:55;95333.53;;;16.49;100.00
33155;BME280;19511;42.682;23.332;2023-05-08T07:26:20;95322.25;;;16.53;100.00
33155;BME280;19511;42.682;23.332;2023-05-08T07:28:47;95328.88;;;16.85;100.00
33155;BME280;19511;42.682;23.332;2023-05-08T07:31:12;95340.06;;;16.98;100.00
33155;BME280;19511;42.682;23.332;2023-05-08T07:33:38;95329.22;;;17.13;100.00
33155;BME280;19511;42.682;23.332;2023-05-08T07:36:03;95337.88;;;17.28;100.00
33155;BME280;19511;42.682;23.332;2023-05-08T07:38:29;95331.03;;;17.42;100.00
33155;BME280;19511;42.682;23.332;2023-05-08T07:40:54;95317.19;;;17.38;100.00
33155;BME280;19511;42.682;23.332;2023-05-08T07:43:25;95259.22;;;17.04;100.00
33155;BME280;19511;42.682;23.332;2023-05-08T07:45:50;95267.84;;;17.09;100.00
33155;BME280;19511;42.682;23.332;2023-05-08T07:48:16;95275.53;;;17.18;100.00
33155;BME280;19511;42.682;23.332;2023-05-08T07:50:41;95244.72;;;16.83;100.00
33155;BME280;19511;42.682;23.332;2023-05-08T07:53:07;95337.72;;;17.44;100.00
33155;BME280;19511;42.682;23.332;2023-05-08T07:55:32;95345.66;;;17.59;100.00
33155;BME280;19511;42.682;23.332;2023-05-08T07:57:58;95340.19;;;17.77;100.00
33155;BME280;19511;42.682;23.332;2023-05-08T08:00:24;95342.53;;;18.14;100.00
33155;BME280;19511;42.682;23.332;2023-05-08T08:02:51;95338.38;;;18.19;100.00
33155;BME280;19511;42.682;23.332;2023-05-08T08:05:17;95316.91;;;17.93;100.00
33155;BME280;19511;42.682;23.332;2023-05-08T08:07:43;95326.78;;;17.85;100.00
33155;BME280;19511;42.682;23.332;2023-05-08T08:10:08;95336.69;;;17.86;100.00
33155;BME280;19511;42.682;23.332;2023-05-08T08:12:34;95274.31;;;17.76;100.00
33155;BME280;19511;42.682;23.332;2023-05-08T08:14:59;95347.03;;;18.34;100.00
33155;BME280;19511;42.682;23.332;2023-05-08T08:17:25;95348.03;;;18.40;100.00
33155;BME280;19511;42.682;23.332;2023-05-08T08:19:53;95344.28;;;18.43;100.00
33155;BME280;19511;42.682;23.332;2023-05-08T08:22:18;95326.56;;;18.46;100.00
33155;BME280;19511;42.682;23.332;2023-05-08T08:24:43;95259.41;;;17.79;100.00
33155;BME280;19511;42.682;23.332;2023-05-08T08:27:09;95338.94;;;18.58;100.00
33155;BME280;19511;42.682;23.332;2023-05-08T08:29:34;95331.66;;;18.92;100.00
33155;BME280;19511;42.682;23.332;2023-05-08T08:32:00;95317.06;;;19.16;100.00
33155;BME280;19511;42.682;23.332;2023-05-08T08:34:27;95319.94;;;19.34;100.00
33155;BME280;19511;42.682;23.332;2023-05-08T08:36:53;95321.03;;;19.37;100.00
33155;BME280;19511;42.682;23.332;2023-05-08T08:39:18;95302.47;;;19.39;100.00
33155;BME280;19511;42.682;23.332;2023-05-08T08:41:43;95303.72;;;19.29;100.00
33155;BME280;19511;42.682;23.332;2023-05-08T08:44:09;95303.44;;;19.36;100.00
33155;BME280;19511;42.682;23.332;2023-05-08T08:46:39;95294.13;;;18.99;100.00
33155;BME280;19511;42.682;23.332;2023-05-08T08:49:08;95300.09;;;19.10;100.00
33155;BME280;19511;42.682;23.332;2023-05-08T08:54:59;95216.97;;;18.75;100.00
33155;BME280;19511;42.682;23.332;2023-05-08T08:57:26;95295.31;;;19.38;100.00
33155;BME280;19511;42.682;23.332;2023-05-08T08:59:54;95288.78;;;19.41;100.00
33155;BME280;19511;42.682;23.332;2023-05-08T09:02:25;95289.84;;;19.35;100.00
33155;BME280;19511;42.682;23.332;2023-05-08T09:04:51;95289.69;;;19.29;100.00
33155;BME280;19511;42.682;23.332;2023-05-08T09:07:21;95283.00;;;19.27;100.00
33155;BME280;19511;42.682;23.332;2023-05-08T09:09:54;95266.31;;;19.23;100.00
33155;BME280;19511;42.682;23.332;2023-05-08T09:12:20;95278.03;;;19.49;100.00
33155;BME280;19511;42.682;23.332;2023-05-08T09:14:46;95267.59;;;19.50;100.00
33155;BME280;19511;42.682;23.332;2023-05-08T09:17:11;95267.72;;;19.28;100.00
33155;BME280;19511;42.682;23.332;2023-05-08T09:19:37;95261.59;;;19.11;100.00
33155;BME280;19511;42.682;23.332;2023-05-08T09:22:06;95231.91;;;19.22;100.00
33155;BME280;19511;42.682;23.332;2023-05-08T09:24:56;95247.47;;;19.51;100.00
33155;BME280;19511;42.682;23.332;2023-05-08T09:27:29;95238.75;;;19.40;100.00
33155;BME280;19511;42.682;23.332;2023-05-08T09:32:27;95192.31;;;19.48;100.00
33155;BME280;19511;42.682;23.332;2023-05-08T09:34:53;95249.66;;;19.84;100.00
33155;BME280;19511;42.682;23.332;2023-05-08T09:37:18;95242.00;;;19.75;100.00
33155;BME280;19511;42.682;23.332;2023-05-08T09:39:44;95242.19;;;19.90;100.00
33155;BME280;19511;42.682;23.332;2023-05-08T09:42:12;95255.75;;;19.83;100.00
33155;BME280;19511;42.682;23.332;2023-05-08T09:47:14;95266.50;;;19.75;100.00
33155;BME280;19511;42.682;23.332;2023-05-08T09:50:04;95265.25;;;19.48;100.00
33155;BME280;19511;42.682;23.332;2023-05-08T09:52:31;95273.66;;;19.48;100.00
33155;BME280;19511;42.682;23.332;2023-05-08T09:55:07;95264.94;;;19.55;100.00
33155;BME280;19511;42.682;23.332;2023-05-08T09:57:38;95261.53;;;19.61;100.00
33155;BME280;19511;42.682;23.332;2023-05-08T10:00:05;95268.56;;;19.84;100.00
33155;BME280;19511;42.682;23.332;2023-05-08T10:02:33;95275.22;;;20.14;100.00
33155;BME280;19511;42.682;23.332;2023-05-08T10:05:00;95242.31;;;20.05;100.00
33155;BME280;19511;42.682;23.332;2023-05-08T10:07:30;95250.06;;;20.20;100.00
33155;BME280;19511;42.682;23.332;2023-05-08T10:10:02;95249.59;;;20.31;100.00
33155;BME280;19511;42.682;23.332;2023-05-08T10:12:28;95255.88;;;20.59;100.00
33155;BME280;19511;42.682;23.332;2023-05-08T10:14:58;95182.66;;;20.20;100.00
33155;BME280;19511;42.682;23.332;2023-05-08T10:17:41;95227.16;;;20.21;100.00
33155;BME280;19511;42.682;23.332;2023-05-08T10:20:08;95246.22;;;20.60;100.00
33155;BME280;19511;42.682;23.332;2023-05-08T10:22:41;95228.75;;;20.56;100.00
33155;BME280;19511;42.682;23.332;2023-05-08T10:25:14;95135.69;;;19.87;100.00
33155;BME280;19511;42.682;23.332;2023-05-08T10:28:27;95231.34;;;20.69;100.00
33155;BME280;19511;42.682;23.332;2023-05-08T10:30:26;95232.22;;;20.84;100.00
33155;BME280;19511;42.682;23.332;2023-05-08T10:33:02;95234.09;;;20.87;100.00
33155;BME280;19511;42.682;23.332;2023-05-08T10:35:33;95221.66;;;20.70;100.00
33155;BME280;19511;42.682;23.332;2023-05-08T10:38:02;95220.44;;;20.71;100.00
33155;BME280;19511;42.682;23.332;2023-05-08T10:40:28;95232.00;;;20.97;100.00
33155;BME280;19511;42.682;23.332;2023-05-08T10:42:55;95225.00;;;20.93;100.00
33155;BME280;19511;42.682;23.332;2023-05-08T10:45:20;95222.63;;;21.00;100.00
33155;BME280;19511;42.682;23.332;2023-05-08T10:50:50;95215.19;;;21.12;99.34
33155;BME280;19511;42.682;23.332;2023-05-08T10:53:24;95197.97;;;20.95;99.03
33155;BME280;19511;42.682;23.332;2023-05-08T10:55:54;95128.13;;;20.69;100.00
33155;BME280;19511;42.682;23.332;2023-05-08T11:03:17;95205.19;;;21.11;100.00
33155;BME280;19511;42.682;23.332;2023-05-08T11:05:47;95208.50;;;21.10;100.00
33155;BME280;19511;42.682;23.332;2023-05-08T11:08:20;95188.03;;;21.09;100.00
33155;BME280;19511;42.682;23.332;2023-05-08T11:11:13;95191.50;;;21.04;100.00
33155;BME280;19511;42.682;23.332;2023-05-08T11:14:09;95183.63;;;21.32;100.00
33155;BME280;19511;42.682;23.332;2023-05-08T11:19:19;95084.03;;;20.85;100.00
33155;BME280;19511;42.682;23.332;2023-05-08T11:24:52;95173.25;;;21.63;97.46
33155;BME280;19511;42.682;23.332;2023-05-08T11:27:34;95093.81;;;20.90;100.00
33155;BME280;19511;42.682;23.332;2023-05-08T11:35:59;95148.84;;;22.34;94.11
33155;BME280;19511;42.682;23.332;2023-05-08T11:38:36;95073.81;;;22.01;92.59
33155;BME280;19511;42.682;23.332;2023-05-08T11:41:21;95138.78;;;22.63;91.58
33155;BME280;19511;42.682;23.332;2023-05-08T11:44:07;95130.56;;;22.80;88.24
33155;BME280;19511;42.682;23.332;2023-05-08T11:46:51;95121.69;;;22.88;84.79
33155;BME280;19511;42.682;23.332;2023-05-08T11:49:19;95122.13;;;23.01;82.84
33155;BME280;19511;42.682;23.332;2023-05-08T11:51:47;95104.41;;;22.80;85.28
33155;BME280;19511;42.682;23.332;2023-05-08T11:54:16;95016.53;;;22.25;86.34
33155;BME280;19511;42.682;23.332;2023-05-08T11:56:44;95114.06;;;23.14;84.73
33155;BME280;19511;42.682;23.332;2023-05-08T11:59:10;95114.13;;;23.41;79.76
33155;BME280;19511;42.682;23.332;2023-05-08T12:01:36;95109.72;;;23.60;76.45
33155;BME280;19511;42.682;23.332;2023-05-08T12:04:06;95096.91;;;23.65;78.84
33155;BME280;19511;42.682;23.332;2023-05-08T12:06:32;95112.91;;;23.47;78.71
33155;BME280;19511;42.682;23.332;2023-05-08T12:08:59;95101.59;;;23.47;77.30
33155;BME280;19511;42.682;23.332;2023-05-08T12:11:25;95111.34;;;23.20;77.31
33155;BME280;19511;42.682;23.332;2023-05-08T12:13:51;95104.75;;;23.08;80.63
33155;BME280;19511;42.682;23.332;2023-05-08T12:16:23;95030.75;;;22.72;81.24
33155;BME280;19511;42.682;23.332;2023-05-08T12:18:51;95097.06;;;23.29;77.01
33155;BME280;19511;42.682;23.332;2023-05-08T12:21:21;95104.13;;;23.19;77.64
33155;BME280;19511;42.682;23.332;2023-05-08T12:23:47;95091.34;;;23.03;79.30
33155;BME280;19511;42.682;23.332;2023-05-08T12:26:14;95072.03;;;23.17;76.56
33155;BME280;19511;42.682;23.332;2023-05-08T12:28:43;95085.00;;;23.55;76.91
33155;BME280;19511;42.682;23.332;2023-05-08T12:31:09;95001.75;;;22.92;74.71
33155;BME280;19511;42.682;23.332;2023-05-08T12:33:38;95067.56;;;23.30;73.71
33155;BME280;19511;42.682;23.332;2023-05-08T12:36:07;95089.38;;;23.09;73.83
33155;BME280;19511;42.682;23.332;2023-05-08T12:38:36;95071.63;;;23.24;78.43
33155;BME280;19511;42.682;23.332;2023-05-08T12:41:02;95001.06;;;22.77;75.87
33155;BME280;19511;42.682;23.332;2023-05-08T12:43:33;95083.47;;;23.28;78.14
33155;BME280;19511;42.682;23.332;2023-05-08T12:45:59;95022.13;;;23.02;76.01
33155;BME280;19511;42.682;23.332;2023-05-08T12:48:25;95079.91;;;23.33;77.23
33155;BME280;19511;42.682;23.332;2023-05-08T12:50:59;95077.97;;;23.19;77.80
33155;BME280;19511;42.682;23.332;2023-05-08T12:53:30;95081.19;;;23.11;77.94
33155;BME280;19511;42.682;23.332;2023-05-08T12:55:59;95082.16;;;23.08;79.51
33155;BME280;19511;42.682;23.332;2023-05-08T12:58:27;95062.59;;;22.99;79.20
33155;BME280;19511;42.682;23.332;2023-05-08T13:01:09;94996.78;;;22.61;77.67
33155;BME280;19511;42.682;23.332;2023-05-08T13:03:37;95071.28;;;23.42;78.53
33155;BME280;19511;42.682;23.332;2023-05-08T13:06:03;95079.38;;;23.29;80.59
33155;BME280;19511;42.682;23.332;2023-05-08T13:08:35;95088.19;;;22.04;95.14
33155;BME280;19511;42.682;23.332;2023-05-08T13:11:03;95095.72;;;20.83;100.00
33155;BME280;19511;42.682;23.332;2023-05-08T13:13:30;95083.03;;;20.15;100.00
33155;BME280;19511;42.682;23.332;2023-05-08T13:15:56;95039.22;;;19.14;100.00
33155;BME280;19511;42.682;23.332;2023-05-08T13:18:26;95101.16;;;19.34;100.00
33155;BME280;19511;42.682;23.332;2023-05-08T13:20:52;95035.03;;;19.00;100.00
33155;BME280;19511;42.682;23.332;2023-05-08T13:23:18;95094.47;;;19.50;100.00
33155;BME280;19511;42.682;23.332;2023-05-08T13:25:43;95110.28;;;19.72;100.00
33155;BME280;19511;42.682;23.332;2023-05-08T13:28:09;95112.31;;;19.71;100.00
33155;BME280;19511;42.682;23.332;2023-05-08T13:30:36;95120.94;;;19.49;100.00
33155;BME280;19511;42.682;23.332;2023-05-08T13:33:02;95038.72;;;18.69;100.00
33155;BME280;19511;42.682;23.332;2023-05-08T13:35:28;95115.06;;;19.01;100.00
33155;BME280;19511;42.682;23.332;2023-05-08T13:37:54;95125.63;;;18.97;100.00
33155;BME280;19511;42.682;23.332;2023-05-08T13:40:24;95131.88;;;18.91;100.00